Time;durP1;ratioP1;P1;durP2;ratioP2;P2;SDS_P1;SDS_P2;PMS_P1;PMS_P2;Temp;Humidity;BMP_temperature;BMP_pressure;BME280_temperature;BME280_humidity;BME280_pressure;Samples;Min_cycle;Max_cycle;Signal;HPM_P1;HPM_P2
2023/09/27 00:02:00;;;;;;;14.73;10.45;;;13.80;99.90;;;;;;5074803;28;20175;-74
2023/09/27 00:04:28;;;;;;;12.20;9.88;;;13.90;99.90;;;;;;5074120;28;20059;-74
2023/09/27 00:06:53;;;;;;;14.82;10.05;;;13.90;99.90;;;;;;5074400;28;20073;-74
2023/09/27 00:09:19;;;;;;;14.40;10.80;;;13.90;99.90;;;;;;5074065;28;20037;-73
2023/09/27 00:11:45;;;;;;;13.52;11.18;;;14.00;99.90;;;;;;5074323;28;20043;-73
2023/09/27 00:14:10;;;;;;;14.30;11.75;;;14.00;99.90;;;;;;5074553;28;20083;-74
2023/09/27 00:16:36;;;;;;;13.63;10.68;;;14.10;99.90;;;;;;5074127;28;20055;-74
2023/09/27 00:19:03;;;;;;;12.15;10.00;;;14.20;99.90;;;;;;5074003;28;20059;-74
2023/09/27 00:21:29;;;;;;;14.18;10.45;;;14.20;99.90;;;;;;5074250;28;20128;-73
2023/09/27 00:23:54;;;;;;;11.50;8.98;;;14.10;99.90;;;;;;5074653;28;20501;-73
2023/09/27 00:26:20;;;;;;;12.00;9.80;;;14.00;99.90;;;;;;5074026;28;20045;-74
2023/09/27 00:28:45;;;;;;;10.93;9.15;;;13.90;99.90;;;;;;5074041;28;20056;-74
2023/09/27 00:31:13;;;;;;;14.82;10.25;;;13.80;99.90;;;;;;5073186;28;20044;-74
2023/09/27 00:33:39;;;;;;;14.05;10.60;;;13.80;99.90;;;;;;5074248;28;20048;-74
2023/09/27 00:36:05;;;;;;;11.73;9.75;;;13.70;99.90;;;;;;5072815;28;20396;-74
2023/09/27 00:38:31;;;;;;;12.35;9.75;;;13.60;99.90;;;;;;5073886;28;20465;-74
2023/09/27 00:40:57;;;;;;;11.93;10.60;;;13.60;99.90;;;;;;5073757;28;20105;-74
2023/09/27 00:43:30;;;;;;;13.80;11.15;;;13.60;99.90;;;;;;5074405;28;20462;-75
2023/09/27 00:46:06;;;;;;;13.23;10.32;;;13.60;99.90;;;;;;5074116;28;20040;-74
2023/09/27 00:48:35;;;;;;;15.57;11.15;;;13.60;99.90;;;;;;5073758;28;20491;-74
2023/09/27 00:51:03;;;;;;;13.20;10.73;;;13.60;99.90;;;;;;5074262;28;20449;-74
2023/09/27 00:53:32;;;;;;;13.80;11.13;;;13.50;99.90;;;;;;5072582;28;20076;-74
2023/09/27 00:55:58;;;;;;;14.82;11.55;;;13.50;99.90;;;;;;5073645;28;20079;-74
2023/09/27 00:58:25;;;;;;;12.55;10.90;;;13.40;99.90;;;;;;5073693;28;20052;-74
2023/09/27 01:00:52;;;;;;;13.18;11.15;;;13.40;99.90;;;;;;5073710;28;20036;-74
2023/09/27 01:03:19;;;;;;;15.13;11.00;;;13.30;99.90;;;;;;5073515;28;20131;-74
2023/09/27 01:05:45;;;;;;;13.52;11.02;;;13.30;99.90;;;;;;5073818;28;20504;-74
2023/09/27 01:08:11;;;;;;;16.73;10.90;;;13.30;99.90;;;;;;5073599;28;20123;-74
2023/09/27 01:10:37;;;;;;;13.10;10.70;;;13.30;99.90;;;;;;5073505;28;20094;-74
2023/09/27 01:13:04;;;;;;;16.08;10.52;;;13.20;99.90;;;;;;5073534;28;20173;-74
2023/09/27 01:15:31;;;;;;;14.68;10.93;;;13.20;99.90;;;;;;5073524;28;20044;-74
2023/09/27 01:17:59;;;;;;;12.43;10.50;;;13.20;99.90;;;;;;5074194;28;20465;-74
2023/09/27 01:20:27;;;;;;;13.00;10.40;;;13.20;99.90;;;;;;5074297;28;20049;-74
2023/09/27 01:23:00;;;;;;;13.35;11.68;;;13.20;99.90;;;;;;5073431;28;20047;-73
2023/09/27 01:25:30;;;;;;;14.82;10.88;;;13.20;99.90;;;;;;5073445;28;20136;-74
2023/09/27 01:28:00;;;;;;;12.90;10.80;;;13.20;99.90;;;;;;5077337;28;20052;-74
2023/09/27 01:30:32;;;;;;;15.82;11.85;;;13.10;99.90;;;;;;5077900;28;20091;-74
2023/09/27 01:33:04;;;;;;;14.45;11.98;;;13.10;99.90;;;;;;5078335;28;20052;-74
2023/09/27 01:35:30;;;;;;;15.85;12.65;;;13.10;99.90;;;;;;5075931;28;20048;-74
2023/09/27 01:37:56;;;;;;;18.25;13.27;;;13.20;99.90;;;;;;5077373;28;20049;-74
2023/09/27 01:40:26;;;;;;;17.40;12.77;;;13.30;99.90;;;;;;5077257;28;20071;-74
2023/09/27 01:42:53;;;;;;;14.77;12.00;;;13.30;99.90;;;;;;5076169;28;20177;-74
2023/09/27 01:45:18;;;;;;;15.43;12.25;;;13.30;99.90;;;;;;5077237;28;20500;-74
2023/09/27 01:47:44;;;;;;;18.35;13.80;;;13.30;99.90;;;;;;5077321;28;20045;-74
2023/09/27 01:50:11;;;;;;;16.88;13.25;;;13.40;99.90;;;;;;5077099;28;20044;-74
2023/09/27 01:52:38;;;;;;;15.88;11.45;;;13.40;99.90;;;;;;5076985;28;20048;-74
2023/09/27 01:55:04;;;;;;;15.52;11.95;;;13.50;99.90;;;;;;5077045;28;20541;-74
2023/09/27 01:57:30;;;;;;;17.65;12.80;;;13.40;99.90;;;;;;5076995;28;20041;-74
2023/09/27 01:59:56;;;;;;;17.35;11.90;;;13.40;99.90;;;;;;5077742;28;20064;-73
2023/09/27 02:02:21;;;;;;;15.45;12.15;;;13.40;99.90;;;;;;5076835;28;20047;-74
2023/09/27 02:04:47;;;;;;;16.20;12.57;;;13.40;99.90;;;;;;5076597;28;20052;-73
2023/09/27 02:07:13;;;;;;;15.35;11.75;;;13.30;99.90;;;;;;5076944;28;20047;-73
2023/09/27 02:09:38;;;;;;;18.40;13.27;;;13.30;99.90;;;;;;5077069;28;20080;-74
2023/09/27 02:12:04;;;;;;;17.77;14.38;;;13.30;99.90;;;;;;5077213;28;20083;-74
2023/09/27 02:14:30;;;;;;;16.35;13.18;;;13.30;99.90;;;;;;5076626;28;20052;-74
2023/09/27 02:16:56;;;;;;;16.92;12.40;;;13.40;99.90;;;;;;5076567;28;20049;-74
2023/09/27 02:19:21;;;;;;;19.05;13.80;;;13.40;99.90;;;;;;5076002;28;20049;-74
2023/09/27 02:21:47;;;;;;;16.38;13.35;;;13.30;99.90;;;;;;5076377;28;20044;-74
2023/09/27 02:24:12;;;;;;;16.17;13.00;;;13.30;99.90;;;;;;5076640;28;20093;-73
2023/09/27 02:26:38;;;;;;;17.85;13.35;;;13.30;99.90;;;;;;5077014;28;20112;-74
2023/09/27 02:29:06;;;;;;;16.10;13.02;;;13.30;99.90;;;;;;5077198;28;20048;-73
2023/09/27 02:31:32;;;;;;;15.77;11.90;;;13.20;99.90;;;;;;5076209;28;20045;-73
2023/09/27 02:33:58;;;;;;;16.48;12.68;;;13.20;99.90;;;;;;5076564;28;20048;-74
2023/09/27 02:36:23;;;;;;;18.02;12.73;;;13.20;99.90;;;;;;5074798;28;20048;-72
2023/09/27 02:38:49;;;;;;;16.23;12.73;;;13.20;99.90;;;;;;5075977;28;20044;-72
2023/09/27 02:41:15;;;;;;;20.25;14.05;;;13.30;99.90;;;;;;5076229;28;20094;-73
2023/09/27 02:43:40;;;;;;;17.20;12.68;;;13.30;99.90;;;;;;5076098;28;20508;-72
2023/09/27 02:46:07;;;;;;;18.70;13.73;;;13.30;99.90;;;;;;5076348;28;20459;-73
2023/09/27 02:48:32;;;;;;;17.98;13.50;;;13.30;99.90;;;;;;5075943;28;20127;-73
2023/09/27 02:50:58;;;;;;;15.18;12.20;;;13.30;99.90;;;;;;5074893;28;20124;-73
2023/09/27 02:53:24;;;;;;;17.08;12.60;;;13.30;99.90;;;;;;5075982;28;20099;-72
2023/09/27 02:55:49;;;;;;;20.33;13.73;;;13.30;99.90;;;;;;5075868;28;20071;-72
2023/09/27 02:58:15;;;;;;;15.15;12.40;;;13.20;99.90;;;;;;5074847;28;20040;-73
2023/09/27 03:00:42;;;;;;;14.35;11.95;;;13.20;99.90;;;;;;5076577;28;20462;-73
2023/09/27 03:03:13;;;;;;;20.38;14.13;;;13.20;99.90;;;;;;5074741;28;20052;-73
2023/09/27 03:05:40;;;;;;;19.98;15.35;;;13.20;99.90;;;;;;5075718;28;20052;-73
2023/09/27 03:08:07;;;;;;;19.30;14.02;;;13.30;99.90;;;;;;5075695;28;20538;-74
2023/09/27 03:10:38;;;;;;;17.27;12.82;;;13.40;99.90;;;;;;5075540;28;20413;-74
2023/09/27 03:13:04;;;;;;;18.13;13.52;;;13.40;99.90;;;;;;5076381;28;20185;-74
2023/09/27 03:15:31;;;;;;;20.33;14.63;;;13.30;99.90;;;;;;5075400;28;20049;-73
2023/09/27 03:17:57;;;;;;;18.85;14.18;;;13.20;99.90;;;;;;5075989;28;20059;-74
2023/09/27 03:20:23;;;;;;;20.92;15.18;;;13.20;99.90;;;;;;5075395;28;20048;-74
2023/09/27 03:22:49;;;;;;;18.90;13.80;;;13.30;99.90;;;;;;5075640;28;20127;-73
2023/09/27 03:25:17;;;;;;;20.58;14.02;;;13.30;99.90;;;;;;5073963;28;20056;-74
2023/09/27 03:27:43;;;;;;;19.10;14.93;;;13.40;99.90;;;;;;5075128;28;20075;-74
2023/09/27 03:30:10;;;;;;;20.48;14.90;;;13.40;99.90;;;;;;5075124;28;20079;-74
2023/09/27 03:32:36;;;;;;;18.88;15.10;;;13.40;99.90;;;;;;5074048;28;20396;-73
2023/09/27 03:35:03;;;;;;;19.05;14.93;;;13.40;99.90;;;;;;5074870;28;20044;-73
2023/09/27 03:37:29;;;;;;;17.90;13.57;;;13.40;99.90;;;;;;5074762;28;20584;-73
2023/09/27 03:39:55;;;;;;;15.48;12.30;;;13.50;99.90;;;;;;5075018;28;20135;-73
2023/09/27 03:42:22;;;;;;;16.15;12.57;;;13.40;99.90;;;;;;5075502;28;20373;-73
2023/09/27 03:44:51;;;;;;;15.73;12.30;;;13.30;99.90;;;;;;5075813;28;20377;-73
2023/09/27 03:47:17;;;;;;;15.43;11.23;;;13.20;99.90;;;;;;5075585;28;20121;-73
2023/09/27 03:49:43;;;;;;;16.45;12.05;;;13.10;99.90;;;;;;5075037;28;20051;-73
2023/09/27 03:52:09;;;;;;;16.48;12.95;;;13.10;99.90;;;;;;5074697;28;20052;-73
2023/09/27 03:54:35;;;;;;;17.77;14.18;;;13.10;99.90;;;;;;5074015;28;20389;-73
2023/09/27 03:57:00;;;;;;;16.35;13.20;;;13.10;99.90;;;;;;5073772;28;20045;-73
2023/09/27 03:59:26;;;;;;;17.45;13.63;;;13.10;99.90;;;;;;5074589;28;20079;-74
2023/09/27 04:01:52;;;;;;;14.60;11.40;;;13.10;99.90;;;;;;5074478;28;20048;-74
2023/09/27 04:04:18;;;;;;;17.77;13.90;;;13.10;99.90;;;;;;5074824;28;20393;-73
2023/09/27 04:06:44;;;;;;;18.48;14.13;;;13.10;99.90;;;;;;5074408;28;20048;-73
2023/09/27 04:09:10;;;;;;;17.55;12.68;;;13.10;99.90;;;;;;5074399;28;20044;-73
2023/09/27 04:11:37;;;;;;;18.60;13.07;;;13.10;99.90;;;;;;5074292;28;20123;-73
2023/09/27 04:14:05;;;;;;;16.40;12.10;;;13.10;99.90;;;;;;5074247;28;20130;-73
2023/09/27 04:16:31;;;;;;;17.48;12.65;;;13.10;99.90;;;;;;5073853;28;20490;-73
2023/09/27 04:18:58;;;;;;;18.42;13.23;;;13.10;99.90;;;;;;5074398;28;20062;-73
2023/09/27 04:21:25;;;;;;;16.83;12.95;;;13.10;99.90;;;;;;5074171;28;20127;-73
2023/09/27 04:23:57;;;;;;;18.58;13.40;;;13.00;99.90;;;;;;5074139;28;20518;-73
2023/09/27 04:26:24;;;;;;;17.00;12.95;;;13.00;99.90;;;;;;5073964;28;20086;-73
2023/09/27 04:28:50;;;;;;;17.52;12.98;;;13.00;99.90;;;;;;5074103;28;20052;-73
2023/09/27 04:31:17;;;;;;;16.30;12.85;;;12.90;99.90;;;;;;5074763;28;20068;-73
2023/09/27 04:33:44;;;;;;;17.00;12.75;;;12.90;99.90;;;;;;5073995;28;20093;-73
2023/09/27 04:36:16;;;;;;;15.75;12.75;;;12.90;99.90;;;;;;5072542;28;20443;-73
2023/09/27 04:38:44;;;;;;;16.58;11.68;;;12.90;99.90;;;;;;5074458;28;20063;-73
2023/09/27 04:41:09;;;;;;;17.08;11.52;;;12.90;99.90;;;;;;5072925;28;20569;-73
2023/09/27 04:43:35;;;;;;;18.33;13.18;;;12.80;99.90;;;;;;5072626;28;20135;-73
2023/09/27 04:46:01;;;;;;;16.63;12.43;;;12.80;99.90;;;;;;5072908;28;20044;-73
2023/09/27 04:48:27;;;;;;;15.25;12.35;;;12.80;99.90;;;;;;5074299;28;20052;-73
2023/09/27 04:50:53;;;;;;;14.70;12.13;;;12.70;99.90;;;;;;5073617;28;20048;-73
2023/09/27 04:53:18;;;;;;;16.83;12.90;;;12.60;99.90;;;;;;5073624;28;20056;-73
2023/09/27 04:55:44;;;;;;;16.88;12.90;;;12.60;99.90;;;;;;5073543;28;20049;-73
2023/09/27 04:58:10;;;;;;;17.58;12.77;;;12.60;99.90;;;;;;5072534;28;20482;-73
2023/09/27 05:00:36;;;;;;;15.15;11.73;;;12.60;99.90;;;;;;5073959;28;20066;-73
2023/09/27 05:03:02;;;;;;;18.10;13.82;;;12.50;99.90;;;;;;5072922;28;20429;-74
2023/09/27 05:05:28;;;;;;;19.13;14.60;;;12.50;99.90;;;;;;5073623;28;20512;-73
2023/09/27 05:07:53;;;;;;;15.52;11.93;;;12.40;99.90;;;;;;5073335;28;20052;-73
2023/09/27 05:10:19;;;;;;;17.42;13.35;;;12.40;99.90;;;;;;5074094;28;20146;-73
2023/09/27 05:12:45;;;;;;;19.30;14.73;;;12.30;99.90;;;;;;5072828;28;20057;-73
2023/09/27 05:15:10;;;;;;;20.05;14.82;;;12.30;99.90;;;;;;5074042;28;20048;-73
2023/09/27 05:17:36;;;;;;;22.55;16.80;;;12.30;99.90;;;;;;5055375;28;20048;-73
2023/09/27 05:20:10;;;;;;;23.38;16.77;;;12.30;99.90;;;;;;5072628;28;20409;-73
2023/09/27 05:22:36;;;;;;;21.02;16.70;;;12.40;99.90;;;;;;5073830;28;20048;-74
2023/09/27 05:25:03;;;;;;;22.17;17.13;;;12.50;99.90;;;;;;5073814;28;20481;-74
2023/09/27 05:27:29;;;;;;;24.80;16.55;;;12.50;99.90;;;;;;5073980;28;20120;-73
2023/09/27 05:29:55;;;;;;;21.65;16.73;;;12.50;99.90;;;;;;5073339;28;20055;-74
2023/09/27 05:32:23;;;;;;;24.85;17.55;;;12.50;99.90;;;;;;5072613;28;20040;-73
2023/09/27 05:34:50;;;;;;;24.48;18.95;;;12.50;99.90;;;;;;5073258;28;20045;-73
2023/09/27 05:37:16;;;;;;;23.92;18.40;;;12.60;99.90;;;;;;5073506;28;20056;-73
2023/09/27 05:39:42;;;;;;;25.00;18.35;;;12.70;99.90;;;;;;5073161;28;20397;-73
2023/09/27 05:42:07;;;;;;;25.30;18.60;;;12.70;99.90;;;;;;5073804;28;20048;-74
2023/09/27 05:44:33;;;;;;;28.40;20.17;;;12.80;99.90;;;;;;5073211;28;20509;-74
2023/09/27 05:46:59;;;;;;;24.73;19.73;;;12.80;99.90;;;;;;5072966;28;20044;-74
2023/09/27 05:49:25;;;;;;;27.27;20.17;;;13.00;99.90;;;;;;5073031;28;20090;-73
2023/09/27 05:51:55;;;;;;;27.65;19.48;;;13.00;99.90;;;;;;5073083;28;20070;-73
2023/09/27 05:54:21;;;;;;;26.65;20.55;;;13.10;99.90;;;;;;5073159;28;20052;-74
2023/09/27 05:56:52;;;;;;;27.48;20.85;;;13.10;99.90;;;;;;5072994;28;20055;-74
2023/09/27 05:59:18;;;;;;;29.38;20.95;;;13.20;99.90;;;;;;5073660;28;20048;-74
2023/09/27 06:01:44;;;;;;;27.58;20.38;;;13.30;99.90;;;;;;5073140;28;20094;-73
2023/09/27 06:04:10;;;;;;;26.17;19.83;;;13.30;99.90;;;;;;5072961;28;20047;-74
2023/09/27 06:06:37;;;;;;;26.52;19.48;;;13.40;99.90;;;;;;5071942;28;20049;-73
2023/09/27 06:09:09;;;;;;;25.45;19.50;;;13.40;99.90;;;;;;5072926;28;20143;-71
2023/09/27 06:11:35;;;;;;;27.83;18.92;;;13.50;99.90;;;;;;5072985;28;20037;-68
2023/09/27 06:14:01;;;;;;;27.55;19.40;;;13.50;99.90;;;;;;5075929;28;20052;-68
2023/09/27 06:16:28;;;;;;;22.65;17.40;;;13.50;99.90;;;;;;5076505;28;20053;-68
2023/09/27 06:18:55;;;;;;;25.17;18.23;;;13.50;99.90;;;;;;5076358;28;20169;-68
2023/09/27 06:21:20;;;;;;;22.33;17.58;;;13.60;99.90;;;;;;5076993;28;20150;-68
2023/09/27 06:23:46;;;;;;;22.73;17.58;;;13.60;99.90;;;;;;5075821;28;20158;-68
2023/09/27 06:26:12;;;;;;;21.17;17.40;;;13.60;99.90;;;;;;5076830;28;20048;-68
2023/09/27 06:28:38;;;;;;;23.13;17.27;;;13.50;99.90;;;;;;5076338;28;20059;-68
2023/09/27 06:31:06;;;;;;;22.10;16.55;;;13.50;99.90;;;;;;5076790;28;20056;-68
2023/09/27 06:33:34;;;;;;;20.27;17.23;;;13.60;99.90;;;;;;5058454;28;20088;-69
2023/09/27 06:36:00;;;;;;;20.48;16.25;;;13.50;99.90;;;;;;5074803;28;20510;-69
2023/09/27 06:38:25;;;;;;;20.40;16.65;;;13.60;99.90;;;;;;5077044;28;20125;-69
2023/09/27 06:40:51;;;;;;;20.65;16.45;;;13.60;99.90;;;;;;5076169;28;20209;-69
2023/09/27 06:43:17;;;;;;;21.45;16.98;;;13.60;99.90;;;;;;5076102;28;20052;-69
2023/09/27 06:45:43;;;;;;;20.45;16.58;;;13.60;99.90;;;;;;5074816;28;20121;-69
2023/09/27 06:48:09;;;;;;;22.27;16.67;;;13.60;99.90;;;;;;5076653;28;20048;-69
2023/09/27 06:50:35;;;;;;;23.00;17.55;;;13.60;99.90;;;;;;5074627;28;20090;-68
2023/09/27 06:53:01;;;;;;;22.83;16.17;;;13.70;99.90;;;;;;5075935;28;20045;-68
2023/09/27 06:55:26;;;;;;;24.25;17.42;;;13.70;99.90;;;;;;5075785;28;20036;-69
2023/09/27 06:57:52;;;;;;;23.75;18.02;;;13.70;99.90;;;;;;5076150;28;20090;-69
2023/09/27 07:00:21;;;;;;;21.10;16.25;;;13.80;99.90;;;;;;5076306;28;20052;-69
2023/09/27 07:02:47;;;;;;;23.02;17.70;;;13.70;99.90;;;;;;5075698;28;20044;-69
2023/09/27 07:05:14;;;;;;;23.92;18.10;;;13.80;99.90;;;;;;5075698;28;20123;-69
2023/09/27 07:07:40;;;;;;;22.45;17.48;;;13.80;99.90;;;;;;5075564;28;20064;-69
2023/09/27 07:10:07;;;;;;;25.52;17.92;;;13.80;99.90;;;;;;5075601;28;20044;-69
2023/09/27 07:12:35;;;;;;;24.05;18.75;;;13.90;99.90;;;;;;5075507;28;20041;-68
2023/09/27 07:15:01;;;;;;;23.17;18.42;;;14.00;99.90;;;;;;5075512;28;20049;-69
2023/09/27 07:17:27;;;;;;;23.63;18.55;;;14.20;99.90;;;;;;5075985;28;20397;-69
2023/09/27 07:19:53;;;;;;;24.70;18.55;;;14.30;99.90;;;;;;5074550;28;20048;-68
2023/09/27 07:22:19;;;;;;;23.88;18.55;;;14.50;99.90;;;;;;5074852;28;20489;-68
2023/09/27 07:24:45;;;;;;;25.98;19.90;;;14.60;99.90;;;;;;5074058;28;20071;-68
2023/09/27 07:27:11;;;;;;;28.67;20.30;;;14.70;99.90;;;;;;5075704;28;20041;-68
2023/09/27 07:29:37;;;;;;;26.55;20.08;;;14.80;99.90;;;;;;5076030;28;20106;-68
2023/09/27 07:32:04;;;;;;;25.73;19.58;;;14.90;99.90;;;;;;5073750;28;20477;-68
2023/09/27 07:34:30;;;;;;;30.45;21.15;;;14.90;99.90;;;;;;5074718;28;20508;-68
2023/09/27 07:36:56;;;;;;;26.73;20.77;;;15.00;99.90;;;;;;5075303;28;20139;-68
2023/09/27 07:39:23;;;;;;;28.98;21.27;;;15.10;99.90;;;;;;5074665;28;20140;-68
2023/09/27 07:41:49;;;;;;;26.33;20.70;;;15.10;99.90;;;;;;5074880;28;20051;-68
2023/09/27 07:44:17;;;;;;;26.63;20.48;;;15.20;99.90;;;;;;5074719;28;20084;-68
2023/09/27 07:46:44;;;;;;;27.42;20.17;;;15.20;99.90;;;;;;5074759;28;20052;-67
2023/09/27 07:49:10;;;;;;;27.10;19.33;;;15.30;99.90;;;;;;5074418;28;20416;-67
2023/09/27 07:51:36;;;;;;;25.35;20.00;;;15.40;99.90;;;;;;5074528;28;20048;-67
2023/09/27 07:54:04;;;;;;;30.85;20.60;;;15.40;99.90;;;;;;5074562;28;20139;-67
2023/09/27 07:56:36;;;;;;;27.55;20.02;;;15.40;99.90;;;;;;5074410;28;20044;-67
2023/09/27 07:59:03;;;;;;;26.35;19.65;;;15.50;99.90;;;;;;5074804;28;20059;-67
2023/09/27 08:01:29;;;;;;;26.73;19.80;;;15.50;99.90;;;;;;5073629;28;20056;-68
2023/09/27 08:04:05;;;;;;;23.00;18.33;;;15.60;99.90;;;;;;5074336;28;20398;-69
2023/09/27 08:06:34;;;;;;;27.25;19.80;;;15.60;99.90;;;;;;5075113;28;20054;-69
2023/09/27 08:09:01;;;;;;;24.08;18.88;;;15.60;99.90;;;;;;5073227;28;20485;-68
2023/09/27 08:11:28;;;;;;;24.80;18.45;;;15.60;99.90;;;;;;5074207;28;20041;-68
2023/09/27 08:13:53;;;;;;;22.40;18.70;;;15.60;99.90;;;;;;5074797;28;20436;-68
2023/09/27 08:16:19;;;;;;;26.10;19.00;;;15.60;99.90;;;;;;5074230;28;20040;-71
2023/09/27 08:18:45;;;;;;;25.02;19.33;;;15.60;99.90;;;;;;5074582;28;20382;-68
2023/09/27 08:21:11;;;;;;;24.85;19.45;;;15.60;99.90;;;;;;5074050;28;20040;-68
2023/09/27 08:23:36;;;;;;;24.23;19.15;;;15.60;99.90;;;;;;5073955;28;20131;-69
2023/09/27 08:26:02;;;;;;;24.23;19.20;;;15.60;99.90;;;;;;5073866;28;20087;-69
2023/09/27 08:28:29;;;;;;;22.77;18.48;;;15.60;99.90;;;;;;5073870;28;20044;-69
2023/09/27 08:30:59;;;;;;;26.55;19.77;;;15.70;99.90;;;;;;5073909;28;20454;-69
2023/09/27 08:33:25;;;;;;;27.80;19.33;;;15.80;99.90;;;;;;5072491;28;20083;-69
2023/09/27 08:35:52;;;;;;;24.00;18.58;;;16.00;99.90;;;;;;5073408;28;20056;-69
2023/09/27 08:38:18;;;;;;;25.58;18.63;;;16.10;99.90;;;;;;5074366;28;20056;-69
2023/09/27 08:40:47;;;;;;;24.42;19.33;;;16.20;99.90;;;;;;5074100;28;20043;-67
2023/09/27 08:43:14;;;;;;;24.75;19.27;;;16.30;99.90;;;;;;5073707;28;20125;-68
2023/09/27 08:45:40;;;;;;;24.38;18.70;;;16.40;99.90;;;;;;5073701;28;20393;-69
2023/09/27 08:48:13;;;;;;;26.25;18.73;;;16.50;99.90;;;;;;5073262;28;20505;-68
2023/09/27 08:50:39;;;;;;;22.88;17.80;;;16.80;99.90;;;;;;5073594;28;20056;-68
2023/09/27 08:53:04;;;;;;;23.95;18.30;;;17.10;99.90;;;;;;5073416;28;20135;-68
2023/09/27 08:55:31;;;;;;;24.20;17.85;;;17.20;99.90;;;;;;5074070;28;20048;-68
2023/09/27 08:57:57;;;;;;;21.35;17.15;;;17.40;99.90;;;;;;5073695;28;20049;-68
2023/09/27 09:00:26;;;;;;;22.33;16.73;;;17.50;99.90;;;;;;5074129;28;20075;-68
2023/09/27 09:02:59;;;;;;;23.63;18.38;;;17.50;99.90;;;;;;5072787;28;20135;-71
2023/09/27 09:05:28;;;;;;;21.92;17.83;;;17.50;99.90;;;;;;5056319;28;20049;-68
2023/09/27 09:07:55;;;;;;;23.33;18.77;;;17.70;99.90;;;;;;5073672;28;20102;-68
2023/09/27 09:10:24;;;;;;;24.25;19.13;;;17.90;99.90;;;;;;5073018;28;20450;-69
2023/09/27 09:12:51;;;;;;;25.17;18.25;;;18.10;99.90;;;;;;5071784;28;20048;-69
2023/09/27 09:15:40;;;;;;;21.15;16.98;;;18.40;99.90;;;;;;5073292;28;20053;-68
2023/09/27 09:18:11;;;;;;;25.25;18.08;;;18.50;99.90;;;;;;5073251;28;20090;-68
2023/09/27 09:20:54;;;;;;;23.17;17.30;;;18.40;99.90;;;;;;5074249;28;20123;-70
2023/09/27 09:23:36;;;;;;;24.00;17.60;;;18.40;99.90;;;;;;5073305;28;20045;-68
2023/09/27 09:26:09;;;;;;;21.98;16.73;;;18.60;99.90;;;;;;5073120;28;20127;-70
2023/09/27 09:28:52;;;;;;;23.00;16.50;;;18.80;99.90;;;;;;5073607;28;20194;-69
2023/09/27 09:31:22;;;;;;;22.00;16.70;;;19.00;99.90;;;;;;5073112;28;20041;-70
2023/09/27 09:34:04;;;;;;;19.48;16.27;;;19.10;99.90;;;;;;5073973;28;20420;-69
2023/09/27 09:36:31;;;;;;;21.48;15.70;;;19.20;99.90;;;;;;5073129;28;20067;-69
2023/09/27 09:39:12;;;;;;;18.90;15.32;;;19.20;99.90;;;;;;5072672;28;20404;-69
2023/09/27 09:41:52;;;;;;;20.13;14.25;;;19.30;99.90;;;;;;5073816;28;20045;-68
2023/09/27 09:44:22;;;;;;;17.30;13.93;;;19.30;99.90;;;;;;5073206;28;20051;-68
2023/09/27 09:46:49;;;;;;;15.43;13.18;;;19.30;99.90;;;;;;5072908;28;20550;-68
2023/09/27 09:49:18;;;;;;;17.88;14.20;;;19.40;99.90;;;;;;5076616;28;20392;-68
2023/09/27 09:51:50;;;;;;;15.90;12.43;;;19.40;99.90;;;;;;5075698;28;20032;-70
2023/09/27 09:54:21;;;;;;;14.05;11.00;;;19.60;99.90;;;;;;5076776;28;20041;-68
2023/09/27 09:56:50;;;;;;;13.90;11.88;;;19.60;99.90;;;;;;5076841;28;20040;-68
2023/09/27 09:59:22;;;;;;;13.90;11.18;;;19.60;99.90;;;;;;5076764;28;20063;-68
2023/09/27 10:01:51;;;;;;;13.18;11.10;;;19.60;99.90;;;;;;5076395;28;20114;-68
2023/09/27 10:04:17;;;;;;;15.35;12.15;;;19.60;99.90;;;;;;5076414;28;20102;-68
2023/09/27 10:06:43;;;;;;;17.90;11.82;;;19.50;99.90;;;;;;5076327;28;20102;-68
2023/09/27 10:09:13;;;;;;;15.32;12.38;;;19.50;99.90;;;;;;5076238;28;20045;-69
2023/09/27 10:11:41;;;;;;;13.27;11.18;;;19.50;99.90;;;;;;5076421;28;20501;-67
2023/09/27 10:14:10;;;;;;;15.57;12.38;;;19.60;99.90;;;;;;5076520;28;20041;-68
2023/09/27 10:16:37;;;;;;;16.48;12.18;;;19.80;99.90;;;;;;5076483;28;20080;-68
2023/09/27 10:19:05;;;;;;;14.23;11.15;;;20.20;99.90;;;;;;5076236;28;20067;-69
2023/09/27 10:21:31;;;;;;;14.38;11.63;;;20.50;99.90;;;;;;5076385;28;20119;-69
2023/09/27 10:24:01;;;;;;;14.27;11.77;;;20.80;99.90;;;;;;5076418;28;20052;-68
2023/09/27 10:26:27;;;;;;;14.45;11.27;;;21.10;99.90;;;;;;5058226;28;20118;-68
2023/09/27 10:29:03;;;;;;;13.63;10.77;;;21.60;99.90;;;;;;5076224;28;20048;-68
2023/09/27 10:31:37;;;;;;;14.48;11.63;;;21.70;99.90;;;;;;5074658;28;20048;-68
2023/09/27 10:34:22;;;;;;;12.07;9.88;;;21.60;99.90;;;;;;5076061;28;20127;-68
2023/09/27 10:36:47;;;;;;;12.98;10.50;;;21.30;99.90;;;;;;5076361;28;20056;-67
2023/09/27 10:39:13;;;;;;;14.27;10.57;;;21.10;99.90;;;;;;5074785;28;20059;-67
2023/09/27 10:41:43;;;;;;;11.80;9.40;;;21.00;99.90;;;;;;5075980;28;20119;-67
2023/09/27 10:44:09;;;;;;;10.90;8.77;;;20.90;99.90;;;;;;5075762;28;20041;-68
2023/09/27 10:46:41;;;;;;;12.55;9.90;;;21.00;99.90;;;;;;5074927;28;20388;-68
2023/09/27 10:49:07;;;;;;;11.90;9.85;;;21.00;99.90;;;;;;5075853;28;20048;-68
2023/09/27 10:51:33;;;;;;;15.30;10.55;;;21.10;99.90;;;;;;5075761;28;20098;-68
2023/09/27 10:53:59;;;;;;;12.15;10.02;;;21.00;99.90;;;;;;5074835;28;20056;-68
2023/09/27 10:56:25;;;;;;;12.90;10.18;;;21.00;99.90;;;;;;5076196;28;20048;-68
2023/09/27 10:58:52;;;;;;;14.50;11.30;;;21.10;99.90;;;;;;5075484;28;20066;-68
2023/09/27 11:01:22;;;;;;;13.68;10.75;;;21.20;99.90;;;;;;5075637;28;20045;-68
2023/09/27 11:03:56;;;;;;;14.93;11.70;;;21.40;99.90;;;;;;5075536;28;20052;-68
2023/09/27 11:06:22;;;;;;;14.95;11.50;;;21.60;99.90;;;;;;5075621;28;20068;-68
2023/09/27 11:08:48;;;;;;;11.38;9.90;;;21.80;99.90;;;;;;5075419;28;20057;-68
2023/09/27 11:11:14;;;;;;;14.52;11.15;;;21.90;99.90;;;;;;5075261;28;20032;-68
2023/09/27 11:13:44;;;;;;;12.80;10.90;;;22.00;99.90;;;;;;5075941;28;20040;-68
2023/09/27 11:16:14;;;;;;;12.32;9.35;;;22.00;99.90;;;;;;5075344;28;20048;-67
2023/09/27 11:18:51;;;;;;;11.07;8.95;;;22.00;99.90;;;;;;5075251;28;20048;-68
2023/09/27 11:21:17;;;;;;;12.43;10.15;;;22.00;99.90;;;;;;5075916;28;20047;-68
2023/09/27 11:24:07;;;;;;;13.07;9.52;;;21.90;99.90;;;;;;5075618;28;20379;-68
2023/09/27 11:26:33;;;;;;;12.32;9.77;;;21.80;99.90;;;;;;5075620;28;20060;-69
2023/09/27 11:29:03;;;;;;;15.88;11.32;;;21.80;99.90;;;;;;5075261;28;20051;-69
2023/09/27 11:31:37;;;;;;;14.85;10.60;;;21.70;99.90;;;;;;5074993;28;20044;-69
2023/09/27 11:34:30;;;;;;;13.95;9.85;;;21.60;99.90;;;;;;5074562;28;20484;-69
2023/09/27 11:37:02;;;;;;;12.43;10.90;;;21.60;99.90;;;;;;5071691;28;20057;-69
2023/09/27 11:39:46;;;;;;;14.15;11.18;;;21.50;99.90;;;;;;5075014;28;20053;-68
2023/09/27 11:42:11;;;;;;;13.30;10.52;;;21.40;99.90;;;;;;5074064;28;20626;-69
2023/09/27 11:44:37;;;;;;;12.10;10.80;;;21.30;99.90;;;;;;5075055;28;20049;-69
2023/09/27 11:47:05;;;;;;;13.18;10.57;;;21.30;99.90;;;;;;5074570;28;20052;-68
2023/09/27 11:49:30;;;;;;;13.35;11.02;;;21.20;99.90;;;;;;5075394;28;20049;-68
2023/09/27 11:51:56;;;;;;;12.73;11.18;;;21.30;99.90;;;;;;5074651;28;20488;-68
2023/09/27 11:54:22;;;;;;;13.20;11.23;;;21.40;99.90;;;;;;5074692;28;20054;-69
2023/09/27 11:56:48;;;;;;;14.02;11.30;;;21.50;99.90;;;;;;5074614;28;20085;-69
2023/09/27 11:59:13;;;;;;;14.85;10.20;;;21.60;99.90;;;;;;5074787;28;20074;-69
2023/09/27 12:01:39;;;;;;;11.55;10.07;;;21.60;99.90;;;;;;5074466;28;20542;-69
2023/09/27 12:04:06;;;;;;;12.77;9.45;;;21.60;99.90;;;;;;5074409;28;20049;-69
2023/09/27 12:06:32;;;;;;;11.85;9.80;;;21.60;99.90;;;;;;5074452;28;20425;-69
2023/09/27 12:08:59;;;;;;;11.63;9.07;;;21.50;99.90;;;;;;5074605;28;20113;-69
2023/09/27 12:11:25;;;;;;;12.27;8.90;;;21.50;99.90;;;;;;5073668;28;20119;-69
2023/09/27 12:13:53;;;;;;;11.18;9.20;;;21.40;99.90;;;;;;5074188;28;20044;-69
2023/09/27 12:16:20;;;;;;;10.27;8.50;;;21.30;99.90;;;;;;5074175;28;20051;-68
2023/09/27 12:18:47;;;;;;;11.73;8.38;;;21.30;99.90;;;;;;5074109;28;20127;-68
2023/09/27 12:21:13;;;;;;;11.15;7.78;;;21.30;99.90;;;;;;5074100;28;20041;-69
2023/09/27 12:23:40;;;;;;;8.75;7.55;;;21.20;99.90;;;;;;5074135;28;20048;-68
2023/09/27 12:26:06;;;;;;;8.98;7.28;;;21.20;99.90;;;;;;5074020;28;20052;-69
2023/09/27 12:28:36;;;;;;;10.60;6.85;;;21.20;99.90;;;;;;5074236;28;20118;-68
2023/09/27 12:31:05;;;;;;;8.18;7.05;;;21.20;99.90;;;;;;5073854;28;20050;-68